Time;durP1;ratioP1;P1;durP2;ratioP2;P2;SDS_P1;SDS_P2;PMS_P1;PMS_P2;Temp;Humidity;BMP_temperature;BMP_pressure;BME280_temperature;BME280_humidity;BME280_pressure;Samples;Min_cycle;Max_cycle;Signal;HPM_P1;HPM_P2
2020/12/21 00:00:00;;;;;;;0.20;0.20;;;;;;;;;;5088049;28;20230;-68
2020/12/21 00:02:26;;;;;;;0.30;0.30;;;;;;;;;;5103485;28;20202;-68
2020/12/21 00:04:53;;;;;;;0.20;0.20;;;;;;;;;;5106979;28;20225;-68
2020/12/21 00:07:19;;;;;;;0.20;0.20;;;;;;;;;;5092943;28;20203;-69
2020/12/21 00:09:45;;;;;;;0.20;0.20;;;;;;;;;;5107819;28;20384;-68
2020/12/21 00:12:12;;;;;;;0.17;0.17;;;;;;;;;;5095463;28;20194;-69
2020/12/21 00:14:38;;;;;;;0.43;0.43;;;;;;;;;;5087344;28;20202;-67
2020/12/21 00:17:06;;;;;;;3.03;1.80;;;;;;;;;;5089188;28;20257;-68
2020/12/21 00:19:32;;;;;;;1.47;1.47;;;;;;;;;;5093811;28;20524;-68
2020/12/21 00:21:59;;;;;;;0.20;0.20;;;;;;;;;;5096768;28;20202;-68
2020/12/21 00:24:25;;;;;;;0.30;0.30;;;;;;;;;;5094141;28;20203;-68
2020/12/21 00:26:52;;;;;;;0.23;0.23;;;;;;;;;;5107312;28;20199;-68
2020/12/21 00:29:19;;;;;;;0.20;0.20;;;;;;;;;;5092768;28;20297;-68
2020/12/21 00:31:46;;;;;;;0.20;0.20;;;;;;;;;;5108060;28;20235;-68
2020/12/21 00:34:13;;;;;;;0.20;0.20;;;;;;;;;;5103744;28;20269;-68
2020/12/21 00:36:40;;;;;;;0.20;0.20;;;;;;;;;;5106999;28;20210;-69
2020/12/21 00:39:07;;;;;;;0.20;0.20;;;;;;;;;;5101824;28;20410;-69
2020/12/21 00:41:34;;;;;;;0.27;0.27;;;;;;;;;;5114952;28;20198;-69
2020/12/21 00:44:00;;;;;;;0.80;0.80;;;;;;;;;;5098512;28;20311;-68
2020/12/21 00:46:28;;;;;;;0.87;0.87;;;;;;;;;;5113019;28;20497;-68
2020/12/21 00:48:55;;;;;;;0.30;0.30;;;;;;;;;;5113837;28;20394;-68
2020/12/21 00:51:22;;;;;;;0.20;0.20;;;;;;;;;;5109080;28;20234;-68
2020/12/21 00:53:49;;;;;;;0.20;0.20;;;;;;;;;;5113484;28;20229;-68
2020/12/21 00:56:15;;;;;;;1.03;1.03;;;;;;;;;;5099172;28;20250;-68
2020/12/21 00:58:42;;;;;;;0.20;0.20;;;;;;;;;;5112230;28;20221;-69
2020/12/21 01:01:09;;;;;;;0.20;0.20;;;;;;;;;;5083048;28;20198;-68
2020/12/21 01:03:36;;;;;;;0.20;0.20;;;;;;;;;;5103448;28;20201;-69
2020/12/21 01:06:02;;;;;;;0.47;0.47;;;;;;;;;;5120184;28;20206;-69
2020/12/21 01:08:30;;;;;;;2.60;2.43;;;;;;;;;;5091958;28;20215;-69
2020/12/21 01:10:56;;;;;;;1.10;0.40;;;;;;;;;;5099639;28;20400;-68
2020/12/21 01:13:23;;;;;;;0.20;0.20;;;;;;;;;;5101306;28;20194;-70
2020/12/21 01:15:49;;;;;;;1.03;1.03;;;;;;;;;;5113905;28;20279;-68
2020/12/21 01:18:16;;;;;;;0.23;0.23;;;;;;;;;;5099660;28;20260;-68
2020/12/21 01:20:42;;;;;;;0.23;0.23;;;;;;;;;;5104112;28;20228;-68
2020/12/21 01:23:09;;;;;;;0.20;0.20;;;;;;;;;;5102773;28;20205;-68
2020/12/21 01:25:36;;;;;;;0.20;0.20;;;;;;;;;;5088937;28;20208;-68
2020/12/21 01:28:03;;;;;;;0.27;0.27;;;;;;;;;;5102844;28;20214;-68
2020/12/21 01:30:29;;;;;;;1.37;1.27;;;;;;;;;;5124051;28;20272;-67
2020/12/21 01:32:56;;;;;;;0.20;0.20;;;;;;;;;;5098042;28;20206;-69
2020/12/21 01:35:22;;;;;;;0.20;0.20;;;;;;;;;;5100519;28;20197;-67
2020/12/21 01:37:49;;;;;;;0.40;0.40;;;;;;;;;;5099122;28;20319;-69
2020/12/21 01:40:15;;;;;;;0.57;0.57;;;;;;;;;;5114946;28;20474;-68
2020/12/21 01:42:42;;;;;;;0.20;0.20;;;;;;;;;;5102796;28;20286;-69
2020/12/21 01:45:09;;;;;;;0.20;0.20;;;;;;;;;;5106498;28;20225;-68
2020/12/21 01:47:35;;;;;;;0.50;0.50;;;;;;;;;;5123859;28;20234;-68
2020/12/21 01:50:02;;;;;;;0.20;0.20;;;;;;;;;;5105325;28;20232;-68
2020/12/21 01:52:28;;;;;;;0.70;0.70;;;;;;;;;;5103713;28;20198;-68
2020/12/21 01:54:55;;;;;;;0.30;0.30;;;;;;;;;;5098735;28;20205;-68
2020/12/21 01:57:21;;;;;;;0.20;0.20;;;;;;;;;;5082573;28;20291;-69
2020/12/21 01:59:49;;;;;;;0.20;0.20;;;;;;;;;;5100239;28;20484;-68
2020/12/21 02:02:16;;;;;;;0.20;0.20;;;;;;;;;;5102014;28;20201;-69
2020/12/21 02:04:42;;;;;;;0.30;0.30;;;;;;;;;;5101715;28;20194;-68
2020/12/21 02:07:11;;;;;;;0.20;0.20;;;;;;;;;;5103346;28;20223;-68
2020/12/21 02:09:38;;;;;;;0.23;0.23;;;;;;;;;;5112664;28;20210;-68
2020/12/21 02:12:04;;;;;;;0.70;0.70;;;;;;;;;;5098139;28;20193;-68
2020/12/21 02:14:31;;;;;;;0.20;0.20;;;;;;;;;;5101965;28;20503;-68
2020/12/21 02:16:58;;;;;;;4.13;3.90;;;;;;;;;;5094453;28;20265;-68
2020/12/21 02:19:25;;;;;;;0.20;0.20;;;;;;;;;;5094931;28;20300;-68
2020/12/21 02:21:52;;;;;;;0.20;0.20;;;;;;;;;;5094253;28;20225;-69
2020/12/21 02:24:18;;;;;;;0.20;0.20;;;;;;;;;;5094974;28;20234;-69
2020/12/21 02:26:45;;;;;;;0.20;0.20;;;;;;;;;;5114740;28;20217;-68
2020/12/21 02:29:11;;;;;;;1.20;1.20;;;;;;;;;;5100078;28;20239;-69
2020/12/21 02:31:37;;;;;;;0.20;0.20;;;;;;;;;;5106020;28;20456;-68
2020/12/21 02:34:04;;;;;;;0.20;0.20;;;;;;;;;;5102376;28;20197;-68
2020/12/21 02:36:30;;;;;;;0.27;0.27;;;;;;;;;;5089973;28;20226;-68
2020/12/21 02:38:58;;;;;;;0.30;0.30;;;;;;;;;;5099423;28;20249;-69
2020/12/21 02:41:24;;;;;;;0.20;0.20;;;;;;;;;;5100080;28;20491;-68
2020/12/21 02:43:51;;;;;;;0.20;0.20;;;;;;;;;;5095066;28;20230;-69
2020/12/21 02:46:17;;;;;;;0.20;0.20;;;;;;;;;;5108529;28;20543;-68
2020/12/21 02:48:43;;;;;;;0.20;0.20;;;;;;;;;;5116767;28;20219;-68
2020/12/21 02:51:10;;;;;;;0.97;0.97;;;;;;;;;;5103362;28;20475;-68
2020/12/21 02:53:36;;;;;;;0.20;0.20;;;;;;;;;;5103925;28;20400;-68
2020/12/21 02:56:04;;;;;;;0.20;0.20;;;;;;;;;;5085407;28;20241;-68
2020/12/21 02:58:31;;;;;;;0.20;0.20;;;;;;;;;;5098262;28;20320;-68
2020/12/21 03:00:57;;;;;;;0.20;0.20;;;;;;;;;;5106955;28;20510;-69
2020/12/21 03:03:24;;;;;;;1.80;1.80;;;;;;;;;;5100947;28;20273;-68
2020/12/21 03:05:50;;;;;;;0.20;0.20;;;;;;;;;;5100484;28;20226;-68
2020/12/21 03:08:16;;;;;;;0.93;0.93;;;;;;;;;;5113226;28;20210;-69
2020/12/21 03:10:43;;;;;;;0.20;0.20;;;;;;;;;;5092314;28;20467;-69
2020/12/21 03:13:10;;;;;;;0.20;0.20;;;;;;;;;;5100112;28;20489;-68
2020/12/21 03:15:37;;;;;;;0.40;0.40;;;;;;;;;;5112684;28;20265;-69
2020/12/21 03:18:03;;;;;;;0.20;0.20;;;;;;;;;;5096071;28;20219;-68
2020/12/21 03:20:30;;;;;;;3.20;1.17;;;;;;;;;;5091283;28;20200;-68
2020/12/21 03:22:56;;;;;;;0.20;0.20;;;;;;;;;;5100414;28;20203;-69
2020/12/21 03:25:23;;;;;;;0.20;0.20;;;;;;;;;;5103662;28;20462;-68
2020/12/21 03:27:49;;;;;;;0.70;0.70;;;;;;;;;;5115273;28;20234;-68
2020/12/21 03:30:16;;;;;;;0.17;0.17;;;;;;;;;;5101576;28;20429;-69
2020/12/21 03:32:42;;;;;;;1.50;1.50;;;;;;;;;;5117629;28;20241;-69
2020/12/21 03:35:09;;;;;;;0.20;0.20;;;;;;;;;;5103686;28;20387;-68
2020/12/21 03:37:35;;;;;;;0.20;0.20;;;;;;;;;;5111117;28;20226;-68
2020/12/21 03:40:03;;;;;;;0.20;0.20;;;;;;;;;;5090027;28;20398;-68
2020/12/21 03:42:29;;;;;;;0.20;0.20;;;;;;;;;;5089298;28;20498;-68
2020/12/21 03:44:56;;;;;;;0.20;0.20;;;;;;;;;;5108304;28;20260;-68
2020/12/21 03:47:23;;;;;;;0.60;0.60;;;;;;;;;;5097519;28;20255;-68
2020/12/21 03:49:49;;;;;;;0.20;0.20;;;;;;;;;;5101557;28;20226;-68
2020/12/21 03:52:16;;;;;;;0.70;0.70;;;;;;;;;;5104608;28;20198;-68
2020/12/21 03:54:42;;;;;;;0.20;0.20;;;;;;;;;;5103094;28;20517;-69
2020/12/21 03:57:09;;;;;;;0.20;0.20;;;;;;;;;;5083366;28;20229;-69
2020/12/21 03:59:35;;;;;;;0.20;0.20;;;;;;;;;;5103633;28;20205;-68
2020/12/21 04:02:01;;;;;;;0.20;0.20;;;;;;;;;;5104403;28;20275;-69
2020/12/21 04:04:29;;;;;;;0.20;0.20;;;;;;;;;;5114281;28;20199;-69
2020/12/21 04:06:55;;;;;;;0.20;0.20;;;;;;;;;;5093908;28;20264;-68
2020/12/21 04:09:22;;;;;;;0.20;0.20;;;;;;;;;;5099865;28;20205;-69
2020/12/21 04:11:48;;;;;;;0.20;0.20;;;;;;;;;;5095352;28;20207;-68
2020/12/21 04:14:14;;;;;;;0.20;0.20;;;;;;;;;;5096154;28;20202;-68
2020/12/21 04:16:41;;;;;;;0.20;0.20;;;;;;;;;;5103131;28;20267;-68
2020/12/21 04:19:07;;;;;;;0.20;0.20;;;;;;;;;;5098372;28;20242;-69
2020/12/21 04:21:34;;;;;;;0.20;0.20;;;;;;;;;;5089690;28;20203;-68
2020/12/21 04:24:01;;;;;;;0.20;0.20;;;;;;;;;;5104206;28;20207;-69
2020/12/21 04:26:27;;;;;;;0.20;0.20;;;;;;;;;;5109520;28;20509;-69
2020/12/21 04:28:53;;;;;;;6.60;6.30;;;;;;;;;;5083508;28;20312;-68
2020/12/21 04:31:20;;;;;;;0.20;0.20;;;;;;;;;;5082315;28;20249;-68
2020/12/21 04:33:47;;;;;;;0.20;0.20;;;;;;;;;;5085730;28;20200;-68
2020/12/21 04:36:14;;;;;;;0.83;0.80;;;;;;;;;;5104531;28;20512;-68
2020/12/21 04:38:42;;;;;;;0.20;0.20;;;;;;;;;;5108238;28;20285;-68
2020/12/21 04:41:09;;;;;;;0.20;0.20;;;;;;;;;;5101131;28;20248;-68
2020/12/21 04:43:36;;;;;;;0.20;0.20;;;;;;;;;;5112859;28;20290;-68
2020/12/21 04:46:04;;;;;;;0.20;0.20;;;;;;;;;;5109556;28;20241;-68
2020/12/21 04:48:31;;;;;;;1.13;1.10;;;;;;;;;;5110768;28;20202;-68
2020/12/21 04:50:57;;;;;;;0.20;0.20;;;;;;;;;;5115247;28;20412;-68
2020/12/21 04:53:24;;;;;;;0.20;0.20;;;;;;;;;;5087532;28;20231;-68
2020/12/21 04:55:51;;;;;;;0.20;0.20;;;;;;;;;;5106860;28;20421;-68
2020/12/21 04:58:18;;;;;;;0.20;0.20;;;;;;;;;;5104685;28;20416;-68
2020/12/21 05:00:44;;;;;;;0.20;0.20;;;;;;;;;;5096288;28;20210;-69
2020/12/21 05:03:11;;;;;;;0.20;0.20;;;;;;;;;;5085952;28;20274;-68
2020/12/21 05:05:38;;;;;;;0.17;0.17;;;;;;;;;;5089080;28;20519;-69
2020/12/21 05:08:08;;;;;;;0.30;0.30;;;;;;;;;;5099728;28;20226;-68
2020/12/21 05:10:35;;;;;;;0.93;0.90;;;;;;;;;;5111518;28;20244;-68
2020/12/21 05:13:03;;;;;;;0.20;0.20;;;;;;;;;;5092191;28;20453;-68
2020/12/21 05:15:29;;;;;;;0.20;0.20;;;;;;;;;;5098971;28;20241;-69
2020/12/21 05:18:06;;;;;;;0.20;0.20;;;;;;;;;;5115254;28;20253;-68
2020/12/21 05:20:32;;;;;;;1.90;1.80;;;;;;;;;;5101112;28;20239;-69
2020/12/21 05:22:59;;;;;;;0.20;0.20;;;;;;;;;;5095614;28;20274;-68
2020/12/21 05:25:25;;;;;;;0.20;0.20;;;;;;;;;;5105686;28;20210;-68
2020/12/21 05:27:52;;;;;;;0.20;0.20;;;;;;;;;;5099675;28;20196;-68
2020/12/21 05:30:19;;;;;;;0.20;0.20;;;;;;;;;;5094963;28;20278;-68
2020/12/21 05:32:45;;;;;;;0.40;0.40;;;;;;;;;;5120459;28;20233;-68
2020/12/21 05:35:13;;;;;;;0.20;0.20;;;;;;;;;;5098637;28;20227;-68
2020/12/21 05:37:40;;;;;;;0.20;0.20;;;;;;;;;;5120100;28;20225;-68
2020/12/21 05:40:06;;;;;;;1.03;1.03;;;;;;;;;;5094017;28;20198;-68
2020/12/21 05:42:34;;;;;;;0.20;0.20;;;;;;;;;;5101139;28;20238;-68
2020/12/21 05:45:01;;;;;;;0.73;0.73;;;;;;;;;;5094045;28;20251;-69
2020/12/21 05:47:28;;;;;;;0.20;0.20;;;;;;;;;;5109775;28;20221;-68
2020/12/21 05:49:56;;;;;;;0.20;0.20;;;;;;;;;;5119131;28;20274;-68
2020/12/21 05:52:30;;;;;;;0.20;0.20;;;;;;;;;;5113601;28;20273;-68
2020/12/21 05:54:56;;;;;;;0.20;0.20;;;;;;;;;;5097256;28;20499;-68
2020/12/21 05:57:26;;;;;;;0.20;0.20;;;;;;;;;;5091221;28;20448;-68
2020/12/21 05:59:53;;;;;;;0.30;0.30;;;;;;;;;;5102181;28;20198;-68
2020/12/21 06:02:20;;;;;;;0.20;0.20;;;;;;;;;;5113053;28;20269;-69
2020/12/21 06:04:48;;;;;;;0.20;0.20;;;;;;;;;;5115450;28;20226;-68
2020/12/21 06:07:21;;;;;;;0.20;0.20;;;;;;;;;;5108871;28;20209;-68
2020/12/21 06:09:48;;;;;;;0.20;0.20;;;;;;;;;;5123779;28;20211;-68
2020/12/21 06:12:15;;;;;;;0.30;0.30;;;;;;;;;;5119462;28;20225;-68
2020/12/21 06:14:42;;;;;;;0.20;0.20;;;;;;;;;;5096546;28;20469;-68
2020/12/21 06:17:10;;;;;;;0.20;0.20;;;;;;;;;;5091819;28;20258;-68
2020/12/21 06:19:36;;;;;;;0.20;0.20;;;;;;;;;;5092563;28;20521;-68
2020/12/21 06:22:03;;;;;;;0.60;0.60;;;;;;;;;;5113090;28;20231;-68
2020/12/21 06:24:36;;;;;;;0.20;0.20;;;;;;;;;;5104266;28;20213;-68
2020/12/21 06:27:11;;;;;;;0.20;0.20;;;;;;;;;;5105736;28;20201;-68
2020/12/21 06:29:38;;;;;;;0.20;0.20;;;;;;;;;;5121112;28;20381;-69
2020/12/21 06:32:05;;;;;;;0.20;0.20;;;;;;;;;;5097847;28;20267;-68
2020/12/21 06:34:32;;;;;;;0.20;0.20;;;;;;;;;;5109097;28;20548;-69
2020/12/21 06:37:00;;;;;;;0.20;0.20;;;;;;;;;;5121101;28;20198;-68
2020/12/21 06:39:27;;;;;;;2.10;2.00;;;;;;;;;;5096688;28;20250;-69
2020/12/21 06:42:01;;;;;;;0.20;0.20;;;;;;;;;;5112937;28;20975;-68
2020/12/21 06:44:28;;;;;;;1.67;1.57;;;;;;;;;;5115155;28;20566;-69
2020/12/21 06:46:55;;;;;;;0.30;0.30;;;;;;;;;;5099185;28;20550;-69
2020/12/21 06:49:21;;;;;;;3.07;2.87;;;;;;;;;;5096179;28;20230;-69
2020/12/21 06:51:48;;;;;;;0.27;0.27;;;;;;;;;;5088262;28;20431;-69
2020/12/21 06:54:16;;;;;;;0.50;0.50;;;;;;;;;;5102286;28;20263;-68
2020/12/21 06:56:44;;;;;;;0.30;0.30;;;;;;;;;;5112895;28;20274;-70
2020/12/21 06:59:12;;;;;;;0.40;0.40;;;;;;;;;;5100111;28;20289;-69
2020/12/21 07:01:39;;;;;;;0.30;0.30;;;;;;;;;;5099888;28;20199;-69
2020/12/21 07:04:09;;;;;;;0.20;0.20;;;;;;;;;;5105372;28;20207;-69
2020/12/21 07:06:36;;;;;;;0.30;0.30;;;;;;;;;;5107631;28;20206;-69
2020/12/21 07:09:03;;;;;;;0.20;0.20;;;;;;;;;;5106402;28;20487;-68
2020/12/21 07:11:30;;;;;;;1.23;1.23;;;;;;;;;;5102636;28;20236;-68
2020/12/21 07:13:57;;;;;;;0.20;0.20;;;;;;;;;;5100465;28;20234;-69
2020/12/21 07:16:23;;;;;;;0.20;0.20;;;;;;;;;;5104166;28;20237;-68
2020/12/21 07:18:50;;;;;;;0.67;0.67;;;;;;;;;;5118961;28;20318;-68
2020/12/21 07:21:16;;;;;;;1.20;1.20;;;;;;;;;;5101429;28;20197;-67
2020/12/21 07:23:44;;;;;;;0.20;0.20;;;;;;;;;;5112338;28;20273;-68
2020/12/21 07:26:13;;;;;;;0.20;0.20;;;;;;;;;;5104650;28;20214;-71
2020/12/21 07:28:39;;;;;;;0.30;0.30;;;;;;;;;;5103532;28;20229;-68
2020/12/21 07:31:07;;;;;;;0.30;0.30;;;;;;;;;;5100416;28;20229;-68
2020/12/21 07:33:34;;;;;;;1.33;1.23;;;;;;;;;;5112336;28;20230;-69
2020/12/21 07:36:01;;;;;;;0.20;0.20;;;;;;;;;;5112954;28;20250;-69
2020/12/21 07:38:27;;;;;;;0.20;0.20;;;;;;;;;;5102200;28;20285;-69
2020/12/21 07:40:54;;;;;;;0.20;0.20;;;;;;;;;;5099257;28;20244;-68
2020/12/21 07:43:23;;;;;;;0.20;0.20;;;;;;;;;;5112706;28;20199;-69
2020/12/21 07:45:50;;;;;;;0.20;0.20;;;;;;;;;;5116277;28;20222;-69
2020/12/21 07:48:19;;;;;;;0.40;0.40;;;;;;;;;;5097416;28;20294;-69
2020/12/21 07:50:46;;;;;;;0.20;0.20;;;;;;;;;;5095741;28;20269;-68
2020/12/21 07:53:13;;;;;;;0.80;0.80;;;;;;;;;;5112903;28;20376;-68
2020/12/21 07:55:39;;;;;;;0.57;0.57;;;;;;;;;;5112932;28;20269;-69
2020/12/21 07:58:14;;;;;;;0.20;0.20;;;;;;;;;;5100808;28;20247;-68
2020/12/21 08:00:40;;;;;;;1.40;1.40;;;;;;;;;;5109270;28;20493;-69
2020/12/21 08:03:09;;;;;;;0.20;0.20;;;;;;;;;;5112566;28;20214;-69
2020/12/21 08:05:36;;;;;;;0.30;0.30;;;;;;;;;;5109813;28;20198;-69
2020/12/21 08:08:10;;;;;;;0.20;0.20;;;;;;;;;;5097314;28;20242;-69
2020/12/21 08:10:37;;;;;;;0.20;0.20;;;;;;;;;;5110496;28;20294;-69
2020/12/21 08:13:03;;;;;;;0.20;0.20;;;;;;;;;;5110878;28;20279;-68
2020/12/21 08:15:29;;;;;;;0.37;0.37;;;;;;;;;;5097418;28;20465;-68
2020/12/21 08:17:56;;;;;;;4.30;4.10;;;;;;;;;;5109879;28;20474;-69
2020/12/21 08:20:22;;;;;;;0.40;0.40;;;;;;;;;;5113532;28;20280;-69
2020/12/21 08:22:49;;;;;;;0.20;0.20;;;;;;;;;;5099359;28;20551;-68
2020/12/21 08:25:16;;;;;;;0.20;0.20;;;;;;;;;;5106380;28;20206;-69
2020/12/21 08:27:43;;;;;;;0.20;0.20;;;;;;;;;;5100330;28;20270;-69
2020/12/21 08:30:11;;;;;;;0.20;0.20;;;;;;;;;;5105574;28;20199;-69
2020/12/21 08:32:37;;;;;;;0.87;0.73;;;;;;;;;;5102142;28;20486;-69
2020/12/21 08:35:03;;;;;;;0.20;0.20;;;;;;;;;;5093770;28;20233;-69
2020/12/21 08:37:30;;;;;;;0.20;0.20;;;;;;;;;;5107984;28;20365;-68
2020/12/21 08:39:57;;;;;;;0.63;0.63;;;;;;;;;;5107526;28;20211;-69
2020/12/21 08:42:23;;;;;;;0.47;0.47;;;;;;;;;;5116189;28;20206;-69
2020/12/21 08:44:50;;;;;;;0.30;0.30;;;;;;;;;;5096841;28;20314;-68
2020/12/21 08:47:17;;;;;;;2.50;2.40;;;;;;;;;;5098088;28;20226;-69
2020/12/21 08:49:44;;;;;;;0.20;0.20;;;;;;;;;;5097830;28;20232;-69
2020/12/21 08:52:11;;;;;;;0.80;0.80;;;;;;;;;;5113774;28;20204;-69
2020/12/21 08:54:38;;;;;;;1.07;1.07;;;;;;;;;;5102949;28;20198;-69
2020/12/21 08:57:05;;;;;;;0.20;0.20;;;;;;;;;;5096016;28;20212;-68
2020/12/21 08:59:31;;;;;;;0.20;0.20;;;;;;;;;;5090181;28;20246;-70
2020/12/21 09:01:58;;;;;;;0.70;0.70;;;;;;;;;;5104297;28;20494;-70
2020/12/21 09:04:24;;;;;;;0.20;0.20;;;;;;;;;;5097236;28;20198;-69
2020/12/21 09:06:50;;;;;;;0.20;0.20;;;;;;;;;;5097405;28;20449;-69
2020/12/21 09:09:17;;;;;;;0.87;0.87;;;;;;;;;;5110956;28;20205;-68
2020/12/21 09:11:43;;;;;;;9.13;8.57;;;;;;;;;;5101646;28;20195;-69
2020/12/21 09:14:11;;;;;;;0.20;0.20;;;;;;;;;;5098427;28;20253;-68
2020/12/21 09:16:38;;;;;;;0.20;0.20;;;;;;;;;;5094512;28;20341;-68
2020/12/21 09:19:04;;;;;;;0.30;0.30;;;;;;;;;;5096937;28;20302;-69
2020/12/21 09:21:31;;;;;;;0.20;0.20;;;;;;;;;;5107989;28;20196;-68
2020/12/21 09:23:58;;;;;;;1.23;1.23;;;;;;;;;;5112492;28;20233;-69
2020/12/21 09:26:25;;;;;;;0.20;0.20;;;;;;;;;;5101842;28;20231;-74
2020/12/21 09:28:53;;;;;;;0.20;0.20;;;;;;;;;;5094091;28;20193;-73
2020/12/21 09:31:21;;;;;;;0.20;0.20;;;;;;;;;;5095346;28;20200;-69
2020/12/21 09:33:48;;;;;;;0.20;0.20;;;;;;;;;;5098015;28;20204;-69
2020/12/21 09:36:15;;;;;;;0.20;0.20;;;;;;;;;;5102571;28;20199;-69
2020/12/21 09:38:41;;;;;;;2.07;1.97;;;;;;;;;;5112761;28;20329;-69
2020/12/21 09:41:08;;;;;;;0.20;0.20;;;;;;;;;;5095597;28;20230;-69
2020/12/21 09:43:35;;;;;;;0.80;0.80;;;;;;;;;;5098212;28;20200;-69
2020/12/21 09:46:02;;;;;;;0.20;0.20;;;;;;;;;;5111785;28;20247;-69
2020/12/21 09:48:29;;;;;;;0.20;0.20;;;;;;;;;;5090347;28;20245;-70
2020/12/21 09:50:56;;;;;;;0.20;0.20;;;;;;;;;;5098054;28;20241;-70
2020/12/21 09:53:22;;;;;;;0.20;0.20;;;;;;;;;;5094276;28;20199;-69
2020/12/21 09:55:49;;;;;;;0.20;0.20;;;;;;;;;;5091945;28;20200;-70
2020/12/21 09:58:15;;;;;;;0.10;0.10;;;;;;;;;;5100051;28;20224;-69
2020/12/21 10:00:41;;;;;;;0.50;0.50;;;;;;;;;;5111356;28;20202;-69
2020/12/21 10:03:08;;;;;;;0.20;0.20;;;;;;;;;;5089867;28;20205;-73
2020/12/21 10:05:35;;;;;;;0.57;0.57;;;;;;;;;;5082632;28;20197;-72
2020/12/21 10:08:02;;;;;;;0.97;0.97;;;;;;;;;;5099471;28;20203;-72
2020/12/21 10:10:28;;;;;;;0.10;0.10;;;;;;;;;;5099803;28;20208;-71
2020/12/21 10:12:55;;;;;;;0.10;0.10;;;;;;;;;;5100192;28;20200;-72
2020/12/21 10:15:22;;;;;;;0.10;0.10;;;;;;;;;;5093296;28;20500;-72
2020/12/21 10:17:48;;;;;;;0.80;0.67;;;;;;;;;;5097287;28;20237;-71
2020/12/21 10:20:15;;;;;;;0.10;0.10;;;;;;;;;;5101785;28;20199;-72
2020/12/21 10:22:42;;;;;;;0.20;0.20;;;;;;;;;;5088059;28;20224;-72
2020/12/21 10:25:08;;;;;;;0.43;0.43;;;;;;;;;;5087708;28;20197;-73
2020/12/21 10:27:35;;;;;;;0.20;0.20;;;;;;;;;;5107313;28;20345;-72
2020/12/21 10:30:01;;;;;;;0.10;0.10;;;;;;;;;;5098833;28;20197;-72
2020/12/21 10:32:27;;;;;;;0.20;0.20;;;;;;;;;;5105761;28;20232;-72
2020/12/21 10:34:54;;;;;;;0.10;0.10;;;;;;;;;;5120372;28;20233;-72
2020/12/21 10:37:20;;;;;;;0.10;0.10;;;;;;;;;;5105265;28;20202;-72
2020/12/21 10:39:47;;;;;;;0.10;0.10;;;;;;;;;;5093939;28;20529;-72
2020/12/21 10:42:14;;;;;;;0.10;0.10;;;;;;;;;;5117662;28;20217;-72
2020/12/21 10:44:40;;;;;;;0.13;0.13;;;;;;;;;;5095947;28;20367;-72
2020/12/21 10:47:09;;;;;;;0.10;0.10;;;;;;;;;;5101336;28;20224;-73
2020/12/21 10:49:35;;;;;;;0.10;0.10;;;;;;;;;;5122954;28;20191;-72
2020/12/21 10:52:02;;;;;;;0.10;0.10;;;;;;;;;;5090109;28;20237;-71
2020/12/21 10:54:29;;;;;;;0.10;0.10;;;;;;;;;;5098798;28;20198;-72
2020/12/21 10:56:56;;;;;;;0.10;0.10;;;;;;;;;;5096397;28;20198;-73
2020/12/21 10:59:22;;;;;;;0.10;0.10;;;;;;;;;;5095420;28;20421;-73
2020/12/21 11:01:49;;;;;;;0.10;0.10;;;;;;;;;;5099326;28;20203;-73
2020/12/21 11:04:16;;;;;;;0.10;0.10;;;;;;;;;;5096450;28;20202;-72
2020/12/21 11:06:42;;;;;;;0.10;0.10;;;;;;;;;;5101888;28;20268;-75
2020/12/21 11:09:09;;;;;;;0.50;0.50;;;;;;;;;;5102092;28;20430;-73
2020/12/21 11:11:35;;;;;;;0.70;0.70;;;;;;;;;;5094205;28;20206;-73
2020/12/21 11:14:05;;;;;;;0.10;0.10;;;;;;;;;;5098835;28;21335;-74
2020/12/21 11:16:32;;;;;;;0.50;0.50;;;;;;;;;;5101346;28;20245;-73
2020/12/21 11:18:58;;;;;;;0.30;0.30;;;;;;;;;;5111272;28;20225;-73
2020/12/21 11:21:25;;;;;;;0.10;0.10;;;;;;;;;;5099700;28;20190;-73
2020/12/21 11:23:51;;;;;;;0.10;0.10;;;;;;;;;;5094306;28;20481;-73
2020/12/21 11:26:19;;;;;;;0.13;0.13;;;;;;;;;;5109430;28;20275;-74
2020/12/21 11:28:46;;;;;;;0.20;0.20;;;;;;;;;;5102154;28;20375;-72
2020/12/21 11:31:15;;;;;;;0.10;0.10;;;;;;;;;;5098501;28;20336;-73
2020/12/21 11:33:42;;;;;;;0.10;0.10;;;;;;;;;;5104527;28;20201;-74
2020/12/21 11:36:08;;;;;;;1.90;1.03;;;;;;;;;;5097122;28;20197;-74
2020/12/21 11:38:35;;;;;;;0.20;0.20;;;;;;;;;;5091648;28;20240;-72
2020/12/21 11:41:01;;;;;;;0.17;0.17;;;;;;;;;;5093197;28;20198;-73
2020/12/21 11:43:28;;;;;;;0.57;0.57;;;;;;;;;;5098789;28;20209;-72
2020/12/21 11:45:54;;;;;;;0.20;0.20;;;;;;;;;;5096508;28;20543;-73
2020/12/21 11:48:22;;;;;;;0.20;0.20;;;;;;;;;;5101845;28;20533;-74
2020/12/21 11:50:48;;;;;;;0.10;0.10;;;;;;;;;;5095746;28;20194;-73
2020/12/21 11:53:15;;;;;;;0.20;0.20;;;;;;;;;;5107365;28;20221;-73
2020/12/21 11:55:41;;;;;;;0.10;0.10;;;;;;;;;;5098047;28;20389;-73
2020/12/21 11:58:08;;;;;;;0.20;0.20;;;;;;;;;;5099950;28;20217;-71
2020/12/21 12:00:34;;;;;;;0.10;0.10;;;;;;;;;;5095280;28;20538;-72
2020/12/21 12:03:01;;;;;;;0.20;0.20;;;;;;;;;;5095506;28;20364;-70
2020/12/21 12:05:28;;;;;;;0.20;0.20;;;;;;;;;;5091346;28;20200;-70
2020/12/21 12:07:55;;;;;;;0.10;0.10;;;;;;;;;;5099382;28;20542;-70
2020/12/21 12:10:21;;;;;;;0.17;0.17;;;;;;;;;;5096918;28;20205;-72
2020/12/21 12:12:47;;;;;;;0.20;0.20;;;;;;;;;;5115862;28;20243;-70
2020/12/21 12:15:14;;;;;;;0.20;0.20;;;;;;;;;;5098052;28;20229;-69
2020/12/21 12:17:42;;;;;;;0.20;0.20;;;;;;;;;;5099728;28;20365;-70
2020/12/21 12:20:09;;;;;;;0.17;0.17;;;;;;;;;;5109278;28;20212;-70
2020/12/21 12:22:36;;;;;;;0.10;0.10;;;;;;;;;;5105451;28;20201;-70
2020/12/21 12:25:04;;;;;;;0.20;0.20;;;;;;;;;;5095695;28;20200;-70
2020/12/21 12:27:30;;;;;;;0.20;0.20;;;;;;;;;;5110474;28;20205;-70
2020/12/21 12:29:56;;;;;;;0.20;0.20;;;;;;;;;;5113740;28;20211;-70
2020/12/21 12:32:23;;;;;;;0.20;0.20;;;;;;;;;;5097584;28;20243;-70
2020/12/21 12:34:49;;;;;;;0.13;0.13;;;;;;;;;;5107763;28;20263;-70
2020/12/21 12:37:17;;;;;;;0.23;0.23;;;;;;;;;;5101900;28;20207;-70
2020/12/21 12:39:44;;;;;;;0.20;0.20;;;;;;;;;;5121703;28;20224;-69
2020/12/21 12:42:11;;;;;;;0.20;0.20;;;;;;;;;;5086302;28;20501;-70
2020/12/21 12:44:38;;;;;;;0.20;0.20;;;;;;;;;;5103368;28;20225;-70
2020/12/21 12:47:05;;;;;;;0.20;0.20;;;;;;;;;;5096136;28;20376;-71
2020/12/21 12:49:31;;;;;;;0.20;0.20;;;;;;;;;;5102589;28;20379;-71
2020/12/21 12:51:58;;;;;;;0.37;0.37;;;;;;;;;;5107686;28;20239;-71
2020/12/21 12:54:24;;;;;;;0.53;0.53;;;;;;;;;;5099925;28;20477;-70
2020/12/21 12:56:51;;;;;;;0.20;0.20;;;;;;;;;;5092654;28;20207;-73
2020/12/21 12:59:18;;;;;;;0.80;0.80;;;;;;;;;;5106801;28;20248;-70
2020/12/21 13:01:44;;;;;;;0.20;0.20;;;;;;;;;;5110575;28;20246;-72
2020/12/21 13:04:11;;;;;;;0.20;0.20;;;;;;;;;;5111419;28;20204;-71
2020/12/21 13:06:37;;;;;;;0.20;0.20;;;;;;;;;;5097315;28;20417;-71
2020/12/21 13:09:04;;;;;;;0.20;0.20;;;;;;;;;;5101565;28;20499;-72
2020/12/21 13:11:30;;;;;;;0.50;0.50;;;;;;;;;;5098188;28;20532;-71
2020/12/21 13:13:57;;;;;;;0.17;0.17;;;;;;;;;;5100280;28;20213;-71
2020/12/21 13:16:23;;;;;;;0.40;0.40;;;;;;;;;;5107683;28;20243;-71
2020/12/21 13:18:50;;;;;;;0.13;0.13;;;;;;;;;;5106261;28;20566;-70
2020/12/21 13:21:17;;;;;;;1.03;1.03;;;;;;;;;;5099819;28;20208;-70
2020/12/21 13:23:44;;;;;;;0.37;0.37;;;;;;;;;;5101286;28;20194;-70
2020/12/21 13:26:13;;;;;;;0.20;0.20;;;;;;;;;;5100118;28;20201;-70
2020/12/21 13:28:39;;;;;;;0.10;0.10;;;;;;;;;;5123908;28;20192;-70
2020/12/21 13:31:07;;;;;;;1.73;1.63;;;;;;;;;;5098115;28;20234;-70
2020/12/21 13:33:33;;;;;;;0.30;0.30;;;;;;;;;;5099222;28;20430;-70
2020/12/21 13:36:00;;;;;;;0.10;0.10;;;;;;;;;;5117429;28;20491;-71
2020/12/21 13:38:26;;;;;;;0.10;0.10;;;;;;;;;;5097969;28;20290;-70
2020/12/21 13:40:52;;;;;;;0.10;0.10;;;;;;;;;;5099369;28;20557;-71
2020/12/21 13:43:19;;;;;;;0.13;0.13;;;;;;;;;;5104893;28;20207;-73
2020/12/21 13:45:45;;;;;;;0.17;0.17;;;;;;;;;;5096120;28;20221;-69
2020/12/21 13:48:13;;;;;;;0.10;0.10;;;;;;;;;;5099676;28;20191;-71
2020/12/21 13:50:39;;;;;;;0.17;0.17;;;;;;;;;;5095539;28;20464;-73
2020/12/21 13:53:06;;;;;;;0.10;0.10;;;;;;;;;;5095872;28;20269;-72
2020/12/21 13:55:32;;;;;;;0.20;0.20;;;;;;;;;;5106976;28;20202;-71
2020/12/21 13:57:58;;;;;;;0.20;0.20;;;;;;;;;;5097930;28;20238;-71
2020/12/21 14:00:25;;;;;;;0.10;0.10;;;;;;;;;;5107555;28;20205;-71
2020/12/21 14:02:52;;;;;;;0.10;0.10;;;;;;;;;;5097075;28;20203;-71
2020/12/21 14:05:19;;;;;;;0.20;0.20;;;;;;;;;;5090903;28;20239;-72
2020/12/21 14:07:46;;;;;;;1.13;1.13;;;;;;;;;;5092993;28;20379;-72
2020/12/21 14:10:12;;;;;;;0.10;0.10;;;;;;;;;;5100138;28;20503;-71
2020/12/21 14:12:39;;;;;;;0.10;0.10;;;;;;;;;;5107984;28;20489;-71
2020/12/21 14:15:05;;;;;;;0.20;0.20;;;;;;;;;;5099092;28;20201;-72
2020/12/21 14:17:33;;;;;;;0.10;0.10;;;;;;;;;;5092271;28;20351;-72
2020/12/21 14:20:00;;;;;;;1.03;0.70;;;;;;;;;;5097443;28;20226;-72
2020/12/21 14:22:27;;;;;;;0.50;0.50;;;;;;;;;;5088923;28;20577;-72
2020/12/21 14:24:53;;;;;;;0.10;0.10;;;;;;;;;;5109622;28;20229;-72
2020/12/21 14:27:20;;;;;;;0.20;0.20;;;;;;;;;;5101665;28;20200;-72
2020/12/21 14:29:47;;;;;;;0.20;0.20;;;;;;;;;;5095243;28;20418;-71
2020/12/21 14:32:14;;;;;;;0.20;0.20;;;;;;;;;;5100385;28;20210;-72
2020/12/21 14:34:41;;;;;;;0.17;0.17;;;;;;;;;;5102332;28;20226;-72
2020/12/21 14:37:07;;;;;;;0.20;0.20;;;;;;;;;;5086580;28;20208;-72
2020/12/21 14:39:35;;;;;;;0.20;0.20;;;;;;;;;;5100805;28;20226;-73